Brownsburg, Canada
Current Conditions -  °F | °C
As of 6:00 PM on Saturday 22 Nov 2014 (Local Time) from CYMX Reporting Station
Overcast Overcast  
Wind Chill: 22°   Ceiling: 2300
Heat Index: 30°   Visibility: 15mi
Dew Point: 25°   Wind: 9mph
Humidity: 80%   Direction: 220°SW
Pressure: 29.88"   Gusts: 17mph
Location:  45.68°N, 74.4°W
Report Text: CYMX 222300Z 22008G15KT 15SM OVC023 M01/M04 A2988 RMK SC8 SLP122
Loading
Personal Weather Stations






























Interactive Weather Map New forecast layout! Learn more

10-Day Weather Forecast

Advertisements
Track Severe Weather on mobile